createdAt,value
2018-07-31T00:00:28.097Z,0.00
2018-07-31T00:01:28.125Z,0.00
2018-07-31T00:02:28.154Z,0.00
2018-07-31T00:03:28.200Z,0.00
2018-07-31T00:04:28.207Z,4.00
2018-07-31T00:05:28.236Z,0.00
2018-07-31T00:06:28.266Z,0.00
2018-07-31T00:07:28.296Z,0.00
2018-07-31T00:08:28.322Z,0.00
2018-07-31T00:09:28.359Z,0.00
2018-07-31T00:10:28.383Z,0.00
2018-07-31T00:11:28.408Z,0.00
2018-07-31T00:12:28.438Z,0.00
2018-07-31T00:13:28.466Z,0.00
2018-07-31T00:14:28.500Z,0.00
2018-07-31T00:15:28.526Z,0.00
2018-07-31T00:16:28.558Z,0.00
2018-07-31T00:17:28.586Z,0.00
2018-07-31T00:18:28.612Z,0.00
2018-07-31T00:19:28.638Z,0.00
2018-07-31T00:20:28.666Z,0.00
2018-07-31T00:21:28.696Z,0.00
2018-07-31T00:22:28.726Z,0.00
2018-07-31T00:23:28.755Z,0.00
2018-07-31T00:24:28.790Z,0.00
2018-07-31T00:25:28.808Z,0.00
2018-07-31T00:26:28.847Z,0.00
2018-07-31T00:27:28.868Z,0.00
2018-07-31T00:28:28.898Z,0.00
2018-07-31T00:29:28.926Z,0.00
2018-07-31T00:30:28.957Z,0.00
2018-07-31T00:31:28.985Z,0.00
2018-07-31T00:32:29.010Z,0.00
2018-07-31T00:33:29.038Z,0.00
2018-07-31T00:34:29.072Z,4.00
2018-07-31T00:35:29.095Z,0.00
2018-07-31T00:36:29.134Z,0.00
2018-07-31T00:37:29.153Z,0.00
2018-07-31T00:38:29.192Z,0.00
2018-07-31T00:39:29.207Z,4.00
2018-07-31T00:40:29.241Z,0.00
2018-07-31T00:41:29.271Z,0.00
2018-07-31T00:42:29.298Z,0.00
2018-07-31T00:43:29.384Z,0.00
2018-07-31T00:44:29.358Z,4.00
2018-07-31T00:45:29.381Z,0.00
2018-07-31T00:46:29.423Z,0.00
2018-07-31T00:47:29.436Z,0.00
2018-07-31T00:48:29.464Z,0.00
2018-07-31T00:49:29.500Z,0.00
2018-07-31T00:50:29.524Z,0.00
2018-07-31T00:51:29.548Z,0.00
2018-07-31T00:52:29.577Z,0.00
2018-07-31T00:53:29.605Z,0.00
2018-07-31T00:54:29.640Z,4.00
2018-07-31T00:55:29.666Z,0.00
2018-07-31T00:56:29.692Z,0.00
2018-07-31T00:57:29.720Z,0.00
2018-07-31T00:58:29.752Z,0.00
2018-07-31T00:59:29.781Z,0.00
2018-07-31T01:00:29.807Z,4.00
2018-07-31T01:01:29.840Z,0.00
2018-07-31T01:02:29.864Z,0.00
2018-07-31T01:03:29.888Z,0.00
2018-07-31T01:04:29.917Z,0.00
2018-07-31T01:05:29.942Z,0.00
2018-07-31T01:06:29.976Z,0.00
2018-07-31T01:07:30.002Z,0.00
2018-07-31T01:08:30.032Z,0.00
2018-07-31T01:09:30.057Z,0.00
2018-07-31T01:10:30.088Z,0.00
2018-07-31T01:11:30.119Z,0.00
2018-07-31T01:12:30.144Z,0.00
2018-07-31T01:13:30.176Z,0.00
2018-07-31T01:14:30.198Z,4.00
2018-07-31T01:15:30.236Z,0.00
2018-07-31T01:16:30.257Z,0.00
2018-07-31T01:17:30.284Z,0.00
2018-07-31T01:18:30.318Z,0.00
2018-07-31T01:19:30.348Z,0.00
2018-07-31T01:20:30.374Z,0.00
2018-07-31T01:21:30.396Z,0.00
2018-07-31T01:22:30.428Z,0.00
2018-07-31T01:23:30.462Z,0.00
2018-07-31T01:24:30.486Z,0.00
2018-07-31T01:25:30.510Z,0.00
2018-07-31T01:26:30.544Z,0.00
2018-07-31T01:27:30.566Z,0.00
2018-07-31T01:28:30.601Z,0.00
2018-07-31T01:29:30.625Z,0.00
2018-07-31T01:30:30.655Z,0.00
2018-07-31T01:31:30.684Z,0.00
2018-07-31T01:32:30.712Z,0.00
2018-07-31T01:33:30.738Z,0.00
2018-07-31T01:34:30.764Z,0.00
2018-07-31T01:35:30.796Z,0.00
2018-07-31T01:36:30.823Z,0.00
2018-07-31T01:37:30.848Z,0.00
2018-07-31T01:38:31.294Z,0.00
2018-07-31T01:39:30.924Z,0.00
2018-07-31T01:51:31.277Z,0.00
2018-07-31T01:52:31.268Z,0.00
2018-07-31T01:53:31.304Z,0.00
2018-07-31T01:55:31.576Z,0.00
2018-07-31T01:56:31.405Z,0.00
2018-07-31T01:57:31.715Z,0.00
2018-07-31T01:59:31.537Z,8.00
2018-07-31T02:02:32.985Z,0.00
2018-07-31T02:05:31.657Z,0.00
2018-07-31T02:33:32.422Z,0.00
2018-07-31T02:34:32.446Z,0.00
2018-07-31T02:35:32.469Z,0.00
2018-07-31T02:36:32.500Z,0.00
2018-07-31T02:37:32.530Z,0.00
2018-07-31T02:38:32.563Z,0.00
2018-07-31T02:39:32.590Z,0.00
2018-07-31T02:40:32.608Z,0.00
2018-07-31T02:41:32.640Z,4.00
2018-07-31T02:42:32.669Z,4.00
2018-07-31T02:43:32.696Z,0.00
2018-07-31T02:44:32.725Z,0.00
2018-07-31T02:45:32.755Z,4.00
2018-07-31T02:46:32.784Z,4.00
2018-07-31T02:47:32.813Z,4.00
2018-07-31T02:48:32.846Z,4.00
2018-07-31T02:49:32.869Z,4.00
2018-07-31T02:50:32.901Z,4.00
2018-07-31T02:51:32.922Z,0.00
2018-07-31T02:52:32.956Z,0.00
2018-07-31T02:53:32.983Z,0.00
2018-07-31T02:54:33.008Z,4.00
2018-07-31T02:55:33.033Z,4.00
2018-07-31T02:56:33.064Z,4.00
2018-07-31T02:57:33.089Z,8.00
2018-07-31T02:58:33.119Z,4.00
2018-07-31T02:59:33.152Z,4.00
2018-07-31T03:00:33.172Z,4.00
2018-07-31T03:01:33.198Z,8.00
2018-07-31T03:02:33.239Z,8.00
2018-07-31T03:03:33.256Z,12.00
2018-07-31T03:04:33.282Z,12.00
2018-07-31T03:05:33.310Z,8.00
2018-07-31T03:06:33.343Z,12.00
2018-07-31T03:07:33.373Z,16.00
2018-07-31T03:08:33.401Z,16.00
2018-07-31T03:09:33.422Z,16.00
2018-07-31T03:10:33.456Z,24.00
2018-07-31T03:11:33.479Z,24.00
2018-07-31T03:12:33.508Z,28.00
2018-07-31T03:13:33.536Z,32.00
2018-07-31T03:14:33.574Z,36.00
2018-07-31T03:15:33.591Z,40.00
2018-07-31T03:16:33.613Z,48.00
2018-07-31T03:17:33.659Z,52.00
2018-07-31T03:18:33.668Z,56.00
2018-07-31T03:19:33.699Z,64.00
2018-07-31T03:20:33.727Z,72.00
2018-07-31T03:21:33.758Z,80.00
2018-07-31T03:22:33.785Z,92.00
2018-07-31T03:23:33.809Z,100.00
2018-07-31T03:24:33.837Z,108.00
2018-07-31T03:25:33.866Z,124.00
2018-07-31T03:26:33.896Z,136.00
2018-07-31T03:27:33.920Z,148.00
2018-07-31T03:28:33.952Z,164.00
2018-07-31T03:29:33.980Z,180.00
2018-07-31T03:30:34.015Z,196.00
2018-07-31T03:31:34.027Z,216.00
2018-07-31T03:32:34.060Z,232.00
2018-07-31T03:33:34.089Z,252.00
2018-07-31T03:34:34.112Z,272.00
2018-07-31T03:35:34.141Z,296.00
2018-07-31T03:36:34.167Z,316.00
2018-07-31T03:37:34.196Z,336.00
2018-07-31T03:38:34.225Z,364.00
2018-07-31T03:39:34.254Z,388.00
2018-07-31T03:40:34.283Z,412.00
2018-07-31T03:41:34.314Z,440.00
2018-07-31T03:42:34.341Z,468.00
2018-07-31T03:43:34.361Z,492.00
2018-07-31T03:44:34.393Z,520.00
2018-07-31T03:45:34.423Z,548.00
2018-07-31T03:46:34.450Z,580.00
2018-07-31T03:47:34.477Z,612.00
2018-07-31T03:48:34.531Z,640.00
2018-07-31T03:49:34.529Z,672.00
2018-07-31T03:50:34.563Z,700.00
2018-07-31T03:51:34.583Z,736.00
2018-07-31T03:52:34.613Z,768.00
2018-07-31T03:53:34.639Z,796.00
2018-07-31T03:54:34.663Z,828.00
2018-07-31T03:55:34.760Z,864.00
2018-07-31T03:56:34.742Z,896.00
2018-07-31T03:57:34.751Z,928.00
2018-07-31T03:58:34.775Z,964.00
2018-07-31T03:59:34.803Z,996.00
2018-07-31T04:00:34.829Z,1028.00
2018-07-31T04:01:34.863Z,1068.00
2018-07-31T04:02:34.889Z,1100.00
2018-07-31T04:03:34.919Z,1136.00
2018-07-31T04:04:34.978Z,1168.00
2018-07-31T04:05:35.149Z,1204.00
2018-07-31T04:06:34.997Z,1244.00
2018-07-31T04:07:35.029Z,1280.00
2018-07-31T04:08:35.056Z,1312.00
2018-07-31T04:09:35.082Z,1348.00
2018-07-31T04:10:35.113Z,1380.00
2018-07-31T04:11:35.135Z,1416.00
2018-07-31T04:12:35.167Z,1452.00
2018-07-31T04:13:35.187Z,1488.00
2018-07-31T04:14:35.225Z,1524.00
2018-07-31T04:15:35.247Z,1560.00
2018-07-31T04:16:35.273Z,1592.00
2018-07-31T04:17:35.303Z,1628.00
2018-07-31T04:18:35.331Z,1664.00
2018-07-31T04:19:35.361Z,1700.00
2018-07-31T04:20:35.383Z,1728.00
2018-07-31T04:21:35.417Z,1764.00
2018-07-31T04:22:35.435Z,1792.00
2018-07-31T04:23:35.467Z,1828.00
2018-07-31T04:24:35.491Z,1860.00
2018-07-31T04:25:35.523Z,1892.00
2018-07-31T04:26:35.552Z,1928.00
2018-07-31T04:27:35.581Z,1960.00
2018-07-31T04:28:35.607Z,1988.00
2018-07-31T04:29:35.631Z,2020.00
2018-07-31T04:30:35.663Z,2052.00
2018-07-31T04:31:35.687Z,2084.00
2018-07-31T04:32:35.720Z,2112.00
2018-07-31T04:33:35.744Z,2140.00
2018-07-31T04:34:35.771Z,2172.00
2018-07-31T04:35:35.797Z,2204.00
2018-07-31T04:36:35.825Z,2228.00
2018-07-31T04:37:35.849Z,2260.00
2018-07-31T04:38:35.893Z,2284.00
2018-07-31T04:39:35.910Z,2312.00
2018-07-31T04:40:35.936Z,2336.00
2018-07-31T04:41:35.965Z,2360.00
2018-07-31T04:42:35.995Z,2384.00
2018-07-31T04:43:36.022Z,2404.00
2018-07-31T04:44:36.047Z,2424.00
2018-07-31T04:45:36.077Z,2444.00
2018-07-31T04:46:36.104Z,2476.00
2018-07-31T04:47:36.136Z,2500.00
2018-07-31T04:48:36.162Z,2528.00
2018-07-31T04:49:36.193Z,2560.00
2018-07-31T04:50:36.229Z,2584.00
2018-07-31T04:51:36.243Z,2612.00
2018-07-31T04:52:36.268Z,2640.00
2018-07-31T04:53:36.298Z,2636.00
2018-07-31T04:54:36.329Z,2692.00
2018-07-31T04:55:36.357Z,2720.00
2018-07-31T04:56:36.397Z,2748.00
2018-07-31T04:57:36.409Z,2772.00
2018-07-31T04:58:36.436Z,2796.00
2018-07-31T04:59:36.461Z,2816.00
2018-07-31T05:00:36.490Z,2828.00
2018-07-31T05:01:36.530Z,2856.00
2018-07-31T05:02:36.545Z,2876.00
2018-07-31T05:03:36.575Z,2896.00
2018-07-31T05:04:36.607Z,2916.00
2018-07-31T05:05:36.638Z,2936.00
2018-07-31T05:06:36.658Z,2956.00
2018-07-31T05:07:36.687Z,2976.00
2018-07-31T05:08:36.717Z,3000.00
2018-07-31T05:09:36.741Z,3032.00
2018-07-31T05:10:36.771Z,3072.00
2018-07-31T05:11:36.804Z,3116.00
2018-07-31T05:12:36.827Z,3148.00
2018-07-31T05:13:36.857Z,3176.00
2018-07-31T05:14:36.876Z,3196.00
2018-07-31T05:15:36.911Z,3220.00
2018-07-31T05:16:36.940Z,3240.00
2018-07-31T05:17:36.972Z,3264.00
2018-07-31T05:18:36.995Z,3276.00
2018-07-31T05:19:37.019Z,3280.00
2018-07-31T05:20:37.045Z,3276.00
2018-07-31T05:21:37.077Z,3260.00
2018-07-31T05:22:37.107Z,3264.00
2018-07-31T05:23:37.135Z,3280.00
2018-07-31T05:24:37.160Z,3300.00
2018-07-31T05:25:37.193Z,3304.00
2018-07-31T05:26:37.224Z,3296.00
2018-07-31T05:27:37.245Z,3296.00
2018-07-31T05:28:37.271Z,3272.00
2018-07-31T05:29:37.299Z,3212.00
2018-07-31T05:30:37.329Z,3160.00
2018-07-31T05:31:37.357Z,3132.00
2018-07-31T05:32:37.433Z,3096.00
2018-07-31T05:33:37.415Z,3100.00
2018-07-31T05:34:37.439Z,3100.00
2018-07-31T05:35:37.465Z,3116.00
2018-07-31T05:36:37.494Z,3144.00
2018-07-31T05:37:37.525Z,3172.00
2018-07-31T05:38:37.551Z,3224.00
2018-07-31T05:39:37.577Z,3296.00
2018-07-31T05:40:37.617Z,3388.00
2018-07-31T05:41:37.639Z,3472.00
2018-07-31T05:42:37.670Z,3528.00
2018-07-31T05:43:37.689Z,3612.00
2018-07-31T05:44:37.719Z,3692.00
2018-07-31T05:45:37.756Z,3704.00
2018-07-31T05:46:37.777Z,3720.00
2018-07-31T05:47:37.804Z,3708.00
2018-07-31T05:48:37.840Z,3752.00
2018-07-31T05:49:37.854Z,3776.00
2018-07-31T05:50:37.885Z,3764.00
2018-07-31T05:51:37.915Z,3748.00
2018-07-31T05:52:37.937Z,3736.00
2018-07-31T05:53:37.974Z,3700.00
2018-07-31T05:54:38.003Z,3676.00
2018-07-31T05:55:38.025Z,3656.00
2018-07-31T05:56:38.057Z,3664.00
2018-07-31T05:57:38.084Z,3636.00
2018-07-31T05:58:38.108Z,3644.00
2018-07-31T05:59:38.139Z,3644.00
2018-07-31T06:00:38.169Z,3660.00
2018-07-31T06:01:38.196Z,3664.00
2018-07-31T06:02:38.223Z,3672.00
2018-07-31T06:03:38.324Z,3708.00
2018-07-31T06:04:38.277Z,3704.00
2018-07-31T06:05:38.308Z,3764.00
2018-07-31T06:06:38.333Z,3812.00
2018-07-31T06:07:38.365Z,3828.00
2018-07-31T06:08:38.397Z,3824.00
2018-07-31T06:09:38.435Z,3812.00
2018-07-31T06:10:38.445Z,3824.00
2018-07-31T06:11:38.472Z,3836.00
2018-07-31T06:12:38.498Z,3840.00
2018-07-31T06:13:38.527Z,3868.00
2018-07-31T06:14:38.563Z,3880.00
2018-07-31T06:15:38.583Z,3888.00
2018-07-31T06:16:38.616Z,3868.00
2018-07-31T06:17:38.643Z,3836.00
2018-07-31T06:18:38.668Z,3828.00
2018-07-31T06:19:38.698Z,3844.00
2018-07-31T06:20:38.733Z,3832.00
2018-07-31T06:21:38.755Z,3856.00
2018-07-31T06:22:38.785Z,3816.00
2018-07-31T06:23:38.815Z,3888.00
2018-07-31T06:24:38.837Z,3960.00
2018-07-31T06:25:38.916Z,4028.00
2018-07-31T06:26:38.894Z,4132.00
2018-07-31T06:27:38.923Z,4140.00
2018-07-31T06:28:38.957Z,4156.00
2018-07-31T06:29:38.979Z,4188.00
2018-07-31T06:30:39.008Z,4168.00
2018-07-31T06:31:39.045Z,4212.00
2018-07-31T06:32:39.067Z,4124.00
2018-07-31T06:33:39.089Z,4172.00
2018-07-31T06:34:39.119Z,4240.00
2018-07-31T06:35:39.151Z,4360.00
2018-07-31T06:36:39.173Z,4328.00
2018-07-31T06:37:39.205Z,4448.00
2018-07-31T06:38:39.229Z,4428.00
2018-07-31T06:39:39.256Z,4456.00
2018-07-31T06:40:39.285Z,4528.00
2018-07-31T06:41:39.313Z,4524.00
2018-07-31T06:42:39.359Z,4596.00
2018-07-31T06:43:39.375Z,4644.00
2018-07-31T06:44:39.402Z,4676.00
2018-07-31T06:45:39.423Z,4680.00
2018-07-31T06:46:39.453Z,4732.00
2018-07-31T06:47:39.483Z,4748.00
2018-07-31T06:48:39.512Z,4792.00
2018-07-31T06:49:39.539Z,4864.00
2018-07-31T06:50:39.570Z,4820.00
2018-07-31T06:51:39.591Z,4748.00
2018-07-31T06:52:39.621Z,4676.00
2018-07-31T06:53:39.656Z,4636.00
2018-07-31T06:54:39.690Z,4560.00
2018-07-31T06:55:39.709Z,4492.00
2018-07-31T06:56:39.765Z,4464.00
2018-07-31T06:57:39.771Z,4436.00
2018-07-31T06:58:39.793Z,4456.00
2018-07-31T06:59:39.819Z,4388.00
2018-07-31T07:00:39.841Z,4404.00
2018-07-31T07:01:39.880Z,4480.00
2018-07-31T07:02:39.902Z,4712.00
2018-07-31T07:03:39.937Z,4908.00
2018-07-31T07:04:39.957Z,5028.00
2018-07-31T07:05:39.987Z,5116.00
2018-07-31T07:06:40.037Z,5340.00
2018-07-31T07:07:40.048Z,5416.00
2018-07-31T07:08:40.071Z,5624.00
2018-07-31T07:09:40.100Z,6040.00
2018-07-31T07:10:40.131Z,6520.00
2018-07-31T07:11:40.159Z,6920.00
2018-07-31T07:12:40.187Z,7460.00
2018-07-31T07:13:40.215Z,8184.00
2018-07-31T07:14:40.242Z,8704.00
2018-07-31T07:15:40.266Z,9024.00
2018-07-31T07:16:40.295Z,9268.00
2018-07-31T07:17:40.321Z,9300.00
2018-07-31T07:18:40.351Z,9160.00
2018-07-31T07:19:40.384Z,9240.00
2018-07-31T07:20:40.414Z,9400.00
2018-07-31T07:21:40.439Z,9900.00
2018-07-31T07:22:40.523Z,10336.00
2018-07-31T07:23:40.491Z,11080.00
2018-07-31T07:24:40.526Z,11672.00
2018-07-31T07:25:40.551Z,12000.00
2018-07-31T07:26:40.581Z,12124.00
2018-07-31T07:27:40.605Z,11916.00
2018-07-31T07:28:40.641Z,11888.00
2018-07-31T07:29:40.669Z,11656.00
2018-07-31T07:30:40.697Z,11192.00
2018-07-31T07:31:40.725Z,10624.00
2018-07-31T07:32:40.753Z,10144.00
2018-07-31T07:33:40.870Z,9788.00
2018-07-31T07:34:40.811Z,9396.00
2018-07-31T07:35:40.843Z,9168.00
2018-07-31T07:36:40.871Z,9288.00
2018-07-31T07:37:40.903Z,9124.00
2018-07-31T07:38:40.928Z,9144.00
2018-07-31T07:39:40.972Z,9520.00
2018-07-31T07:40:40.988Z,10040.00
2018-07-31T07:41:41.015Z,10684.00
2018-07-31T07:42:41.045Z,10804.00
2018-07-31T07:43:41.070Z,11372.00
2018-07-31T07:44:41.106Z,11964.00
2018-07-31T07:45:41.130Z,12336.00
2018-07-31T07:46:41.162Z,13044.00
2018-07-31T07:47:41.196Z,13720.00
2018-07-31T07:48:41.224Z,14188.00
2018-07-31T07:49:41.246Z,14680.00
2018-07-31T07:50:41.282Z,15184.00
2018-07-31T07:51:41.305Z,15528.00
2018-07-31T07:52:41.335Z,15912.00
2018-07-31T07:53:41.360Z,16324.00
2018-07-31T07:54:41.389Z,16628.00
2018-07-31T07:55:41.427Z,16964.00
2018-07-31T07:56:41.454Z,17376.00
2018-07-31T07:57:41.478Z,17408.00
2018-07-31T07:58:41.513Z,17248.00
2018-07-31T07:59:41.540Z,16936.00
2018-07-31T08:00:41.568Z,16920.00
2018-07-31T08:01:41.600Z,16876.00
2018-07-31T08:02:41.629Z,16816.00
2018-07-31T08:03:41.683Z,16664.00
2018-07-31T08:04:41.686Z,16620.00
2018-07-31T08:05:41.721Z,16560.00
2018-07-31T08:06:41.754Z,16508.00
2018-07-31T08:07:41.790Z,16640.00
2018-07-31T08:08:41.809Z,16460.00
2018-07-31T08:09:41.889Z,16268.00
2018-07-31T08:10:41.867Z,15960.00
2018-07-31T08:11:41.899Z,15844.00
2018-07-31T08:12:41.927Z,15768.00
2018-07-31T08:13:41.960Z,15700.00
2018-07-31T08:14:41.990Z,15516.00
2018-07-31T08:15:42.023Z,15284.00
2018-07-31T08:16:42.050Z,15036.00
2018-07-31T08:17:42.080Z,14888.00
2018-07-31T08:18:42.115Z,14764.00
2018-07-31T08:19:42.142Z,14620.00
2018-07-31T08:20:42.200Z,14456.00
2018-07-31T08:21:42.218Z,14248.00
2018-07-31T08:22:42.238Z,14016.00
2018-07-31T08:23:42.262Z,13840.00
2018-07-31T08:24:42.294Z,13692.00
2018-07-31T08:25:42.328Z,13484.00
2018-07-31T08:26:42.354Z,13128.00
2018-07-31T08:27:42.407Z,12716.00
2018-07-31T08:28:42.420Z,12232.00
2018-07-31T08:29:42.446Z,11800.00
2018-07-31T08:30:42.478Z,11584.00
2018-07-31T08:31:42.505Z,11448.00
2018-07-31T08:32:42.535Z,11428.00
2018-07-31T08:33:42.566Z,11484.00
2018-07-31T08:34:42.596Z,11700.00
2018-07-31T08:35:42.624Z,12032.00
2018-07-31T08:36:42.656Z,12248.00
2018-07-31T08:37:42.693Z,12340.00
2018-07-31T08:38:42.716Z,12384.00
2018-07-31T08:39:42.746Z,12460.00
2018-07-31T08:40:42.780Z,12612.00
2018-07-31T08:41:42.817Z,12792.00
2018-07-31T08:42:42.840Z,13012.00
2018-07-31T08:43:42.873Z,13224.00
2018-07-31T08:44:42.903Z,13408.00
2018-07-31T08:45:42.932Z,13636.00
2018-07-31T08:46:42.960Z,13880.00
2018-07-31T08:47:42.996Z,14092.00
2018-07-31T08:48:43.018Z,14280.00
2018-07-31T08:49:43.062Z,14360.00
2018-07-31T08:50:43.085Z,14412.00
2018-07-31T08:51:43.120Z,14548.00
2018-07-31T08:52:43.144Z,14656.00
2018-07-31T08:53:43.168Z,14680.00
2018-07-31T08:54:43.207Z,14736.00
2018-07-31T08:55:43.304Z,14856.00
2018-07-31T08:56:43.272Z,15108.00
2018-07-31T08:57:43.290Z,15312.00
2018-07-31T08:58:43.327Z,15508.00
2018-07-31T08:59:43.358Z,15864.00
2018-07-31T09:00:43.392Z,16232.00
2018-07-31T09:01:43.414Z,16548.00
2018-07-31T09:02:43.503Z,16616.00
2018-07-31T09:03:43.476Z,17072.00
2018-07-31T09:04:43.506Z,17264.00
2018-07-31T09:05:43.547Z,17600.00
2018-07-31T09:06:43.577Z,17308.00
2018-07-31T09:07:43.598Z,17344.00
2018-07-31T09:08:43.735Z,17760.00
2018-07-31T09:09:43.661Z,18048.00
2018-07-31T09:10:43.698Z,18176.00
2018-07-31T09:11:43.718Z,18368.00
2018-07-31T09:12:43.750Z,18656.00
2018-07-31T09:13:43.786Z,19040.00
2018-07-31T09:14:43.814Z,19168.00
2018-07-31T09:15:43.841Z,19168.00
2018-07-31T09:16:43.871Z,18944.00
2018-07-31T09:17:43.904Z,18912.00
2018-07-31T09:18:43.940Z,18944.00
2018-07-31T09:19:43.970Z,18976.00
2018-07-31T09:20:43.999Z,19008.00
2018-07-31T09:21:44.036Z,19168.00
2018-07-31T09:22:44.062Z,19424.00
2018-07-31T09:23:44.100Z,19584.00
2018-07-31T09:24:44.141Z,19840.00
2018-07-31T09:25:44.156Z,20000.00
2018-07-31T09:26:44.189Z,20320.00
2018-07-31T09:27:44.209Z,20448.00
2018-07-31T09:28:44.248Z,20448.00
2018-07-31T09:29:44.276Z,20672.00
2018-07-31T09:30:44.394Z,20928.00
2018-07-31T09:31:44.347Z,21760.00
2018-07-31T09:32:44.371Z,21984.00
2018-07-31T09:33:44.400Z,22112.00
2018-07-31T09:34:44.448Z,21952.00
2018-07-31T09:35:44.462Z,21568.00
2018-07-31T09:36:44.495Z,21120.00
2018-07-31T09:37:44.530Z,21056.00
2018-07-31T09:38:44.559Z,20864.00
2018-07-31T09:39:44.588Z,20704.00
2018-07-31T09:40:44.616Z,20640.00
2018-07-31T09:41:44.654Z,20576.00
2018-07-31T09:42:44.762Z,20480.00
2018-07-31T09:43:44.716Z,20480.00
2018-07-31T09:44:44.745Z,20544.00
2018-07-31T09:45:44.782Z,20576.00
2018-07-31T09:46:44.814Z,20672.00
2018-07-31T09:47:44.847Z,20768.00
2018-07-31T09:48:44.881Z,20992.00
2018-07-31T09:49:44.907Z,21120.00
2018-07-31T09:50:44.997Z,21184.00
2018-07-31T09:51:44.966Z,21248.00
2018-07-31T09:52:45.001Z,21344.00
2018-07-31T09:53:45.031Z,21440.00
2018-07-31T09:54:45.062Z,21632.00
2018-07-31T09:55:45.096Z,21824.00
2018-07-31T09:56:45.129Z,22048.00
2018-07-31T09:57:45.162Z,22368.00
2018-07-31T09:58:45.189Z,22656.00
2018-07-31T09:59:45.224Z,22976.00
2018-07-31T10:00:45.254Z,23296.00
2018-07-31T10:01:45.285Z,23456.00
2018-07-31T10:02:45.318Z,23744.00
2018-07-31T10:03:45.352Z,23840.00
2018-07-31T10:04:45.386Z,23936.00
2018-07-31T10:05:45.415Z,23968.00
2018-07-31T10:06:45.448Z,24064.00
2018-07-31T10:07:45.475Z,23808.00
2018-07-31T10:08:45.510Z,23488.00
2018-07-31T10:09:45.546Z,23072.00
2018-07-31T10:10:45.574Z,22592.00
2018-07-31T10:11:45.690Z,22208.00
2018-07-31T10:12:45.636Z,21824.00
2018-07-31T10:13:45.671Z,21504.00
2018-07-31T10:14:45.704Z,21408.00
2018-07-31T10:15:45.736Z,21568.00
2018-07-31T10:16:45.771Z,21824.00
2018-07-31T10:17:45.859Z,22080.00
2018-07-31T10:18:45.836Z,22368.00
2018-07-31T10:19:45.870Z,22656.00
2018-07-31T10:20:45.903Z,22976.00
2018-07-31T10:21:45.930Z,23328.00
2018-07-31T10:22:45.967Z,23520.00
2018-07-31T10:23:45.994Z,23712.00
2018-07-31T10:24:46.026Z,23904.00
2018-07-31T10:25:46.066Z,23936.00
2018-07-31T10:26:46.107Z,24416.00
2018-07-31T10:27:46.126Z,24736.00
2018-07-31T10:28:46.162Z,24352.00
2018-07-31T10:29:46.196Z,23936.00
2018-07-31T10:30:46.372Z,23808.00
2018-07-31T10:31:46.256Z,23840.00
2018-07-31T10:32:46.289Z,23968.00
2018-07-31T10:33:46.320Z,24288.00
2018-07-31T10:34:46.357Z,24320.00
2018-07-31T10:35:46.392Z,24416.00
2018-07-31T10:36:46.419Z,24672.00
2018-07-31T10:37:46.466Z,24992.00
2018-07-31T10:38:46.482Z,25440.00
2018-07-31T10:39:46.516Z,25760.00
2018-07-31T10:40:46.552Z,25120.00
2018-07-31T10:41:46.589Z,24640.00
2018-07-31T10:42:46.618Z,24128.00
2018-07-31T10:43:46.697Z,24256.00
2018-07-31T10:44:46.679Z,24160.00
2018-07-31T10:45:46.716Z,24320.00
2018-07-31T10:46:46.745Z,24032.00
2018-07-31T10:47:46.781Z,24448.00
2018-07-31T10:48:46.818Z,24544.00
2018-07-31T10:49:46.848Z,24672.00
2018-07-31T10:50:46.878Z,24832.00
2018-07-31T10:51:46.911Z,24928.00
2018-07-31T10:52:46.943Z,24352.00
2018-07-31T10:53:46.980Z,24224.00
2018-07-31T10:54:47.017Z,24608.00
2018-07-31T10:55:47.045Z,24992.00
2018-07-31T10:56:47.118Z,25760.00
2018-07-31T10:57:47.110Z,25152.00
2018-07-31T10:58:47.230Z,24672.00
2018-07-31T10:59:48.695Z,25120.00
2018-07-31T11:00:47.208Z,26016.00
2018-07-31T11:01:47.247Z,28384.00
2018-07-31T11:03:47.315Z,27872.00
2018-07-31T11:04:47.343Z,28544.00
2018-07-31T11:05:47.374Z,28384.00
2018-07-31T11:06:47.413Z,26752.00
2018-07-31T11:07:47.451Z,31872.00
2018-07-31T11:08:47.476Z,31968.00
2018-07-31T11:09:47.507Z,31872.00
2018-07-31T11:10:47.554Z,31872.00
2018-07-31T11:11:47.574Z,25408.00
2018-07-31T11:12:47.611Z,24288.00
2018-07-31T11:13:47.644Z,22208.00
2018-07-31T11:14:47.686Z,21184.00
2018-07-31T11:15:47.716Z,20864.00
2018-07-31T11:16:47.744Z,21920.00
2018-07-31T11:17:47.774Z,21408.00
2018-07-31T11:18:47.810Z,21408.00
2018-07-31T11:19:47.842Z,22624.00
2018-07-31T11:20:47.882Z,23232.00
2018-07-31T11:21:47.912Z,21952.00
2018-07-31T11:22:47.947Z,22048.00
2018-07-31T11:23:47.978Z,21568.00
2018-07-31T11:24:48.012Z,21440.00
2018-07-31T11:25:48.050Z,21600.00
2018-07-31T11:26:48.092Z,21024.00
2018-07-31T11:27:48.107Z,21120.00
2018-07-31T11:28:48.152Z,21536.00
2018-07-31T11:29:48.184Z,21952.00
2018-07-31T11:30:48.214Z,22688.00
2018-07-31T11:31:48.245Z,23264.00
2018-07-31T11:32:48.288Z,23744.00
2018-07-31T11:33:48.314Z,23776.00
2018-07-31T11:34:48.350Z,24224.00
2018-07-31T11:35:48.382Z,24640.00
2018-07-31T11:36:48.410Z,25440.00
2018-07-31T11:37:48.447Z,27296.00
2018-07-31T11:38:48.479Z,31744.00
2018-07-31T11:39:48.512Z,30688.00
2018-07-31T11:40:48.547Z,30848.00
2018-07-31T11:41:48.583Z,32480.00
2018-07-31T11:42:48.616Z,35904.00
2018-07-31T11:43:48.648Z,35424.00
2018-07-31T11:44:48.680Z,33152.00
2018-07-31T11:45:48.720Z,32928.00
2018-07-31T11:46:48.751Z,34400.00
2018-07-31T11:47:48.789Z,36608.00
2018-07-31T11:48:48.819Z,37184.00
2018-07-31T11:49:48.875Z,43456.00
2018-07-31T11:50:48.886Z,34016.00
2018-07-31T11:51:48.915Z,34208.00
2018-07-31T11:52:48.952Z,28160.00
2018-07-31T11:53:48.993Z,27392.00
2018-07-31T11:54:49.027Z,28576.00
2018-07-31T11:55:49.061Z,27616.00
2018-07-31T11:56:49.088Z,28096.00
2018-07-31T11:57:49.125Z,27872.00
2018-07-31T11:58:49.161Z,26304.00
2018-07-31T11:59:49.191Z,25440.00
2018-07-31T12:00:49.226Z,24128.00
2018-07-31T12:01:49.321Z,25216.00
2018-07-31T12:02:49.303Z,24832.00
2018-07-31T12:03:49.325Z,24256.00
2018-07-31T12:04:49.366Z,24640.00
2018-07-31T12:05:49.403Z,25344.00
2018-07-31T12:06:49.434Z,25312.00
2018-07-31T12:07:49.465Z,26688.00
2018-07-31T12:08:49.501Z,26848.00
2018-07-31T12:09:49.542Z,28352.00
2018-07-31T12:10:49.567Z,61408.00
2018-07-31T12:11:49.606Z,34816.00
2018-07-31T12:12:49.642Z,35616.00
2018-07-31T12:13:49.714Z,32384.00
2018-07-31T12:14:49.706Z,34080.00
2018-07-31T12:15:49.741Z,36096.00
2018-07-31T12:16:49.770Z,28480.00
2018-07-31T12:17:49.808Z,26112.00
2018-07-31T12:18:49.844Z,25792.00
2018-07-31T12:19:49.874Z,27808.00
2018-07-31T12:20:49.953Z,26208.00
2018-07-31T12:21:49.940Z,25440.00
2018-07-31T12:22:49.983Z,27776.00
2018-07-31T12:23:50.021Z,34880.00
2018-07-31T12:24:50.053Z,38016.00
2018-07-31T12:25:50.085Z,40000.00
2018-07-31T12:26:50.121Z,34656.00
2018-07-31T12:27:50.147Z,34752.00
2018-07-31T12:28:50.190Z,33184.00
2018-07-31T12:29:50.214Z,29504.00
2018-07-31T12:30:50.256Z,28768.00
2018-07-31T12:31:50.280Z,29952.00
2018-07-31T12:32:50.350Z,29824.00
2018-07-31T12:33:50.356Z,29664.00
2018-07-31T12:34:50.386Z,31104.00
2018-07-31T12:35:50.417Z,32672.00
2018-07-31T12:36:50.448Z,30752.00
2018-07-31T12:37:50.491Z,33888.00
2018-07-31T12:38:50.520Z,26400.00
2018-07-31T12:39:50.557Z,26304.00
2018-07-31T12:40:50.586Z,29312.00
2018-07-31T12:41:50.624Z,33856.00
2018-07-31T12:42:50.656Z,33536.00
2018-07-31T12:43:50.690Z,38208.00
2018-07-31T12:44:50.723Z,58432.00
2018-07-31T12:45:50.764Z,55424.00
2018-07-31T12:46:50.793Z,33344.00
2018-07-31T12:47:50.828Z,40448.00
2018-07-31T12:48:50.862Z,41440.00
2018-07-31T12:49:50.896Z,78368.00
2018-07-31T12:50:50.928Z,78240.00
2018-07-31T12:51:50.967Z,60736.00
2018-07-31T12:52:50.994Z,44512.00
2018-07-31T12:53:51.035Z,42272.00
2018-07-31T12:54:51.069Z,50112.00
2018-07-31T12:55:51.106Z,105408.00